sensor_id;sensor_type;location;lat;lon;timestamp;temperature;humidity
35645;DHT22;21764;52.042;6.830;2022-07-22T00:03:50;17.80;99.90
35645;DHT22;21764;52.042;6.830;2022-07-22T00:08:51;17.80;99.90
35645;DHT22;21764;52.042;6.830;2022-07-22T00:13:52;17.80;99.90
35645;DHT22;21764;52.042;6.830;2022-07-22T00:18:52;17.80;99.90
35645;DHT22;21764;52.042;6.830;2022-07-22T00:23:53;17.70;99.90
35645;DHT22;21764;52.042;6.830;2022-07-22T00:28:54;17.80;99.90
35645;DHT22;21764;52.042;6.830;2022-07-22T00:33:54;17.80;99.90
35645;DHT22;21764;52.042;6.830;2022-07-22T00:38:56;17.80;99.90
35645;DHT22;21764;52.042;6.830;2022-07-22T00:44:01;17.80;99.90
35645;DHT22;21764;52.042;6.830;2022-07-22T00:49:04;17.80;99.90
35645;DHT22;21764;52.042;6.830;2022-07-22T00:54:05;17.70;99.90
35645;DHT22;21764;52.042;6.830;2022-07-22T00:59:12;17.70;99.90
35645;DHT22;21764;52.042;6.830;2022-07-22T01:04:13;17.70;99.90
35645;DHT22;21764;52.042;6.830;2022-07-22T01:09:15;17.60;99.90
35645;DHT22;21764;52.042;6.830;2022-07-22T01:14:15;17.70;99.90
35645;DHT22;21764;52.042;6.830;2022-07-22T01:19:16;17.60;99.90
35645;DHT22;21764;52.042;6.830;2022-07-22T01:24:17;17.60;99.90
35645;DHT22;21764;52.042;6.830;2022-07-22T01:29:18;17.60;99.90
35645;DHT22;21764;52.042;6.830;2022-07-22T01:34:18;17.50;99.90
35645;DHT22;21764;52.042;6.830;2022-07-22T01:39:19;17.50;99.90
35645;DHT22;21764;52.042;6.830;2022-07-22T01:44:20;17.50;99.90
35645;DHT22;21764;52.042;6.830;2022-07-22T01:49:20;17.50;99.90
35645;DHT22;21764;52.042;6.830;2022-07-22T01:54:21;17.40;99.90
35645;DHT22;21764;52.042;6.830;2022-07-22T01:59:22;17.30;99.90
35645;DHT22;21764;52.042;6.830;2022-07-22T02:04:23;17.30;99.90
35645;DHT22;21764;52.042;6.830;2022-07-22T02:09:23;17.30;99.90
35645;DHT22;21764;52.042;6.830;2022-07-22T02:14:24;17.20;99.90
35645;DHT22;21764;52.042;6.830;2022-07-22T02:19:26;17.30;99.90
35645;DHT22;21764;52.042;6.830;2022-07-22T02:24:26;17.30;99.90
35645;DHT22;21764;52.042;6.830;2022-07-22T02:29:27;17.20;99.90
35645;DHT22;21764;52.042;6.830;2022-07-22T02:34:28;17.30;99.90
35645;DHT22;21764;52.042;6.830;2022-07-22T02:39:29;17.30;99.90
35645;DHT22;21764;52.042;6.830;2022-07-22T02:44:29;17.30;99.90
35645;DHT22;21764;52.042;6.830;2022-07-22T02:49:30;17.30;99.90
35645;DHT22;21764;52.042;6.830;2022-07-22T02:54:31;17.20;99.90
35645;DHT22;21764;52.042;6.830;2022-07-22T02:59:31;17.20;99.90
35645;DHT22;21764;52.042;6.830;2022-07-22T03:04:32;17.20;99.90
35645;DHT22;21764;52.042;6.830;2022-07-22T03:09:33;17.10;99.90
35645;DHT22;21764;52.042;6.830;2022-07-22T03:14:33;17.10;99.90
35645;DHT22;21764;52.042;6.830;2022-07-22T03:19:34;17.10;99.90
35645;DHT22;21764;52.042;6.830;2022-07-22T03:24:35;17.00;99.90
35645;DHT22;21764;52.042;6.830;2022-07-22T03:29:35;17.00;99.90
35645;DHT22;21764;52.042;6.830;2022-07-22T03:34:36;17.00;99.90
35645;DHT22;21764;52.042;6.830;2022-07-22T03:39:36;17.00;99.90
35645;DHT22;21764;52.042;6.830;2022-07-22T03:44:37;16.80;99.90
35645;DHT22;21764;52.042;6.830;2022-07-22T03:49:38;16.30;99.90
35645;DHT22;21764;52.042;6.830;2022-07-22T03:54:39;16.20;99.90
35645;DHT22;21764;52.042;6.830;2022-07-22T03:59:40;16.20;99.90
35645;DHT22;21764;52.042;6.830;2022-07-22T04:04:41;16.20;99.90
35645;DHT22;21764;52.042;6.830;2022-07-22T04:09:41;16.40;99.90
35645;DHT22;21764;52.042;6.830;2022-07-22T04:14:42;16.80;99.90
35645;DHT22;21764;52.042;6.830;2022-07-22T04:19:43;17.10;99.90
35645;DHT22;21764;52.042;6.830;2022-07-22T04:24:43;17.40;99.90
35645;DHT22;21764;52.042;6.830;2022-07-22T04:29:44;18.10;99.90
35645;DHT22;21764;52.042;6.830;2022-07-22T04:34:44;18.00;99.90
35645;DHT22;21764;52.042;6.830;2022-07-22T04:39:45;18.00;99.90
35645;DHT22;21764;52.042;6.830;2022-07-22T04:44:46;18.00;99.90
35645;DHT22;21764;52.042;6.830;2022-07-22T04:49:47;17.90;99.90
35645;DHT22;21764;52.042;6.830;2022-07-22T04:54:47;17.80;99.90
35645;DHT22;21764;52.042;6.830;2022-07-22T04:59:48;17.70;99.90
35645;DHT22;21764;52.042;6.830;2022-07-22T05:04:49;17.80;99.90
35645;DHT22;21764;52.042;6.830;2022-07-22T05:09:49;17.90;99.90
35645;DHT22;21764;52.042;6.830;2022-07-22T05:14:50;18.00;99.90
35645;DHT22;21764;52.042;6.830;2022-07-22T05:19:51;18.20;99.90
35645;DHT22;21764;52.042;6.830;2022-07-22T05:24:51;18.50;99.90
35645;DHT22;21764;52.042;6.830;2022-07-22T05:29:52;18.90;99.90
35645;DHT22;21764;52.042;6.830;2022-07-22T05:34:53;19.30;99.90
35645;DHT22;21764;52.042;6.830;2022-07-22T05:39:53;19.60;99.90
35645;DHT22;21764;52.042;6.830;2022-07-22T05:44:54;22.30;99.90
35645;DHT22;21764;52.042;6.830;2022-07-22T05:49:55;23.30;99.90
35645;DHT22;21764;52.042;6.830;2022-07-22T05:54:55;21.60;99.90
35645;DHT22;21764;52.042;6.830;2022-07-22T06:00:06;20.60;99.90
35645;DHT22;21764;52.042;6.830;2022-07-22T06:05:07;20.50;99.90
35645;DHT22;21764;52.042;6.830;2022-07-22T06:10:08;20.50;99.90
35645;DHT22;21764;52.042;6.830;2022-07-22T06:15:09;20.60;99.90
35645;DHT22;21764;52.042;6.830;2022-07-22T06:20:10;21.00;99.90
35645;DHT22;21764;52.042;6.830;2022-07-22T06:25:11;21.60;99.90
35645;DHT22;21764;52.042;6.830;2022-07-22T06:30:12;22.00;99.90
35645;DHT22;21764;52.042;6.830;2022-07-22T06:35:12;21.70;99.90
35645;DHT22;21764;52.042;6.830;2022-07-22T06:40:13;21.30;99.90
35645;DHT22;21764;52.042;6.830;2022-07-22T06:45:14;20.80;99.90
35645;DHT22;21764;52.042;6.830;2022-07-22T06:50:17;20.40;99.90
35645;DHT22;21764;52.042;6.830;2022-07-22T06:55:18;20.40;99.90
35645;DHT22;21764;52.042;6.830;2022-07-22T07:00:18;20.30;99.90
35645;DHT22;21764;52.042;6.830;2022-07-22T07:05:19;20.70;99.90
35645;DHT22;21764;52.042;6.830;2022-07-22T07:10:21;20.70;99.90
35645;DHT22;21764;52.042;6.830;2022-07-22T07:15:21;20.90;99.90
35645;DHT22;21764;52.042;6.830;2022-07-22T07:20:24;21.00;99.90
35645;DHT22;21764;52.042;6.830;2022-07-22T07:25:25;21.30;99.90
35645;DHT22;21764;52.042;6.830;2022-07-22T07:30:26;21.30;99.90
35645;DHT22;21764;52.042;6.830;2022-07-22T07:35:27;21.60;99.90
35645;DHT22;21764;52.042;6.830;2022-07-22T07:40:28;21.80;99.90
35645;DHT22;21764;52.042;6.830;2022-07-22T07:45:29;21.90;99.90
35645;DHT22;21764;52.042;6.830;2022-07-22T07:50:30;21.90;99.90
35645;DHT22;21764;52.042;6.830;2022-07-22T07:55:31;22.10;99.90
35645;DHT22;21764;52.042;6.830;2022-07-22T08:00:36;22.10;99.90
35645;DHT22;21764;52.042;6.830;2022-07-22T08:05:37;22.10;99.90
35645;DHT22;21764;52.042;6.830;2022-07-22T08:10:39;22.70;99.90
35645;DHT22;21764;52.042;6.830;2022-07-22T08:15:40;22.30;99.90
35645;DHT22;21764;52.042;6.830;2022-07-22T08:20:41;21.90;99.90
35645;DHT22;21764;52.042;6.830;2022-07-22T08:25:42;21.60;99.90
35645;DHT22;21764;52.042;6.830;2022-07-22T08:30:42;21.40;99.90
35645;DHT22;21764;52.042;6.830;2022-07-22T08:35:44;21.50;99.90
35645;DHT22;21764;52.042;6.830;2022-07-22T08:40:44;21.60;99.90
35645;DHT22;21764;52.042;6.830;2022-07-22T08:45:45;21.40;99.90
35645;DHT22;21764;52.042;6.830;2022-07-22T08:50:47;21.40;99.90
35645;DHT22;21764;52.042;6.830;2022-07-22T08:55:48;21.10;99.90
35645;DHT22;21764;52.042;6.830;2022-07-22T09:01:07;21.00;99.90
35645;DHT22;21764;52.042;6.830;2022-07-22T09:06:08;21.30;99.90
35645;DHT22;21764;52.042;6.830;2022-07-22T09:11:16;21.60;99.90
35645;DHT22;21764;52.042;6.830;2022-07-22T09:21:45;22.50;99.90
35645;DHT22;21764;52.042;6.830;2022-07-22T09:26:53;22.50;99.90
35645;DHT22;21764;52.042;6.830;2022-07-22T09:31:54;22.50;99.90
35645;DHT22;21764;52.042;6.830;2022-07-22T09:36:57;22.70;99.90
35645;DHT22;21764;52.042;6.830;2022-07-22T09:42:00;23.00;99.90
35645;DHT22;21764;52.042;6.830;2022-07-22T09:47:01;23.10;99.90
35645;DHT22;21764;52.042;6.830;2022-07-22T09:52:02;23.80;99.90
35645;DHT22;21764;52.042;6.830;2022-07-22T09:57:03;23.90;99.90
35645;DHT22;21764;52.042;6.830;2022-07-22T10:02:04;23.60;99.90
35645;DHT22;21764;52.042;6.830;2022-07-22T10:07:06;23.50;99.90
35645;DHT22;21764;52.042;6.830;2022-07-22T10:12:07;23.40;99.90
35645;DHT22;21764;52.042;6.830;2022-07-22T10:17:09;24.20;99.90
35645;DHT22;21764;52.042;6.830;2022-07-22T10:28:04;25.50;96.00
35645;DHT22;21764;52.042;6.830;2022-07-22T10:33:08;25.10;96.10
35645;DHT22;21764;52.042;6.830;2022-07-22T10:38:11;24.50;96.80
35645;DHT22;21764;52.042;6.830;2022-07-22T10:43:14;25.10;95.90
35645;DHT22;21764;52.042;6.830;2022-07-22T10:48:18;25.10;96.00
35645;DHT22;21764;52.042;6.830;2022-07-22T10:53:38;24.90;96.60
35645;DHT22;21764;52.042;6.830;2022-07-22T10:58:48;25.00;96.10
35645;DHT22;21764;52.042;6.830;2022-07-22T11:03:49;25.30;95.50
35645;DHT22;21764;52.042;6.830;2022-07-22T11:09:02;25.40;95.40
35645;DHT22;21764;52.042;6.830;2022-07-22T11:19:30;25.50;94.40
35645;DHT22;21764;52.042;6.830;2022-07-22T11:24:33;26.50;92.60
35645;DHT22;21764;52.042;6.830;2022-07-22T11:29:39;27.80;90.60
35645;DHT22;21764;52.042;6.830;2022-07-22T11:34:44;27.50;90.00
35645;DHT22;21764;52.042;6.830;2022-07-22T11:39:46;27.70;87.70
35645;DHT22;21764;52.042;6.830;2022-07-22T11:44:47;26.30;90.70
35645;DHT22;21764;52.042;6.830;2022-07-22T11:49:48;27.80;87.10
35645;DHT22;21764;52.042;6.830;2022-07-22T11:54:48;27.50;86.20
35645;DHT22;21764;52.042;6.830;2022-07-22T11:59:50;23.60;92.60
35645;DHT22;21764;52.042;6.830;2022-07-22T12:04:51;25.70;91.90
35645;DHT22;21764;52.042;6.830;2022-07-22T12:09:52;27.10;89.20
35645;DHT22;21764;52.042;6.830;2022-07-22T12:14:57;26.40;89.40
35645;DHT22;21764;52.042;6.830;2022-07-22T12:20:10;25.30;91.10
35645;DHT22;21764;52.042;6.830;2022-07-22T12:25:13;25.20;90.70
35645;DHT22;21764;52.042;6.830;2022-07-22T12:30:13;25.00;91.50
35645;DHT22;21764;52.042;6.830;2022-07-22T12:35:15;24.30;92.30
35645;DHT22;21764;52.042;6.830;2022-07-22T12:40:22;24.40;91.60
35645;DHT22;21764;52.042;6.830;2022-07-22T12:45:23;24.90;90.80
35645;DHT22;21764;52.042;6.830;2022-07-22T12:50:28;25.50;91.00
35645;DHT22;21764;52.042;6.830;2022-07-22T12:55:29;25.00;90.60
35645;DHT22;21764;52.042;6.830;2022-07-22T13:00:32;26.10;89.80
35645;DHT22;21764;52.042;6.830;2022-07-22T13:05:33;26.40;88.00
35645;DHT22;21764;52.042;6.830;2022-07-22T13:10:36;25.90;89.20
35645;DHT22;21764;52.042;6.830;2022-07-22T13:15:37;25.70;89.80
35645;DHT22;21764;52.042;6.830;2022-07-22T13:20:38;25.20;89.10
35645;DHT22;21764;52.042;6.830;2022-07-22T13:25:38;25.20;90.60
35645;DHT22;21764;52.042;6.830;2022-07-22T13:30:39;25.40;89.80
35645;DHT22;21764;52.042;6.830;2022-07-22T13:35:40;25.00;88.40
35645;DHT22;21764;52.042;6.830;2022-07-22T13:40:41;24.00;90.10
35645;DHT22;21764;52.042;6.830;2022-07-22T13:45:41;25.40;88.50
35645;DHT22;21764;52.042;6.830;2022-07-22T13:50:42;24.90;90.30
35645;DHT22;21764;52.042;6.830;2022-07-22T13:55:43;25.60;86.70
35645;DHT22;21764;52.042;6.830;2022-07-22T14:00:44;24.50;90.00
35645;DHT22;21764;52.042;6.830;2022-07-22T14:05:44;24.40;90.70
35645;DHT22;21764;52.042;6.830;2022-07-22T14:10:45;25.20;89.50
35645;DHT22;21764;52.042;6.830;2022-07-22T14:15:46;25.40;88.90
35645;DHT22;21764;52.042;6.830;2022-07-22T14:20:47;24.40;87.90
35645;DHT22;21764;52.042;6.830;2022-07-22T14:25:48;23.00;91.30
35645;DHT22;21764;52.042;6.830;2022-07-22T14:30:48;24.30;91.70
35645;DHT22;21764;52.042;6.830;2022-07-22T14:35:49;24.50;90.50
35645;DHT22;21764;52.042;6.830;2022-07-22T14:40:50;25.00;89.60
35645;DHT22;21764;52.042;6.830;2022-07-22T14:45:51;25.40;89.30
35645;DHT22;21764;52.042;6.830;2022-07-22T14:50:51;25.50;88.10
35645;DHT22;21764;52.042;6.830;2022-07-22T14:55:52;25.10;88.10
35645;DHT22;21764;52.042;6.830;2022-07-22T15:00:53;24.80;89.90
35645;DHT22;21764;52.042;6.830;2022-07-22T15:05:54;25.00;89.40
35645;DHT22;21764;52.042;6.830;2022-07-22T15:10:55;25.00;89.60
35645;DHT22;21764;52.042;6.830;2022-07-22T15:15:56;24.90;89.80
35645;DHT22;21764;52.042;6.830;2022-07-22T15:20:57;24.20;89.70
35645;DHT22;21764;52.042;6.830;2022-07-22T15:25:59;23.50;90.70
35645;DHT22;21764;52.042;6.830;2022-07-22T15:31:02;24.00;90.30
35645;DHT22;21764;52.042;6.830;2022-07-22T15:36:04;24.60;90.20
35645;DHT22;21764;52.042;6.830;2022-07-22T15:41:07;24.80;89.30
35645;DHT22;21764;52.042;6.830;2022-07-22T15:46:08;25.40;87.60
35645;DHT22;21764;52.042;6.830;2022-07-22T15:51:11;25.40;88.50
35645;DHT22;21764;52.042;6.830;2022-07-22T15:56:11;24.90;89.80
35645;DHT22;21764;52.042;6.830;2022-07-22T16:01:12;24.90;89.60
35645;DHT22;21764;52.042;6.830;2022-07-22T16:06:13;24.70;89.30
35645;DHT22;21764;52.042;6.830;2022-07-22T16:11:14;24.50;90.00
35645;DHT22;21764;52.042;6.830;2022-07-22T16:16:15;24.20;90.20
35645;DHT22;21764;52.042;6.830;2022-07-22T16:21:15;24.10;90.00
35645;DHT22;21764;52.042;6.830;2022-07-22T16:26:16;24.10;90.40
35645;DHT22;21764;52.042;6.830;2022-07-22T16:31:17;24.20;90.50
35645;DHT22;21764;52.042;6.830;2022-07-22T16:36:18;24.10;89.50
35645;DHT22;21764;52.042;6.830;2022-07-22T16:41:19;24.00;90.50
35645;DHT22;21764;52.042;6.830;2022-07-22T16:46:19;23.70;90.60
35645;DHT22;21764;52.042;6.830;2022-07-22T16:51:20;23.60;90.50
35645;DHT22;21764;52.042;6.830;2022-07-22T16:56:21;23.20;91.50
35645;DHT22;21764;52.042;6.830;2022-07-22T17:01:22;23.30;91.10
35645;DHT22;21764;52.042;6.830;2022-07-22T17:06:22;23.90;90.30
35645;DHT22;21764;52.042;6.830;2022-07-22T17:11:23;23.30;90.00
35645;DHT22;21764;52.042;6.830;2022-07-22T17:16:24;23.60;91.40
35645;DHT22;21764;52.042;6.830;2022-07-22T17:21:25;23.70;90.80
35645;DHT22;21764;52.042;6.830;2022-07-22T17:26:26;23.50;90.70
35645;DHT22;21764;52.042;6.830;2022-07-22T17:31:27;23.20;91.20
35645;DHT22;21764;52.042;6.830;2022-07-22T17:36:27;22.90;91.60
35645;DHT22;21764;52.042;6.830;2022-07-22T17:41:28;22.90;92.00
35645;DHT22;21764;52.042;6.830;2022-07-22T17:46:29;22.70;91.90
35645;DHT22;21764;52.042;6.830;2022-07-22T17:51:29;22.50;92.10
35645;DHT22;21764;52.042;6.830;2022-07-22T17:56:30;22.50;92.30
35645;DHT22;21764;52.042;6.830;2022-07-22T18:01:31;22.30;92.60
35645;DHT22;21764;52.042;6.830;2022-07-22T18:06:31;22.20;92.80
35645;DHT22;21764;52.042;6.830;2022-07-22T18:11:32;22.00;93.30
35645;DHT22;21764;52.042;6.830;2022-07-22T18:16:33;21.70;94.00
35645;DHT22;21764;52.042;6.830;2022-07-22T18:21:33;21.60;94.60
35645;DHT22;21764;52.042;6.830;2022-07-22T18:26:34;21.20;94.90
35645;DHT22;21764;52.042;6.830;2022-07-22T18:31:35;21.00;96.10
35645;DHT22;21764;52.042;6.830;2022-07-22T18:36:36;21.00;96.40
35645;DHT22;21764;52.042;6.830;2022-07-22T18:41:36;20.80;96.90
35645;DHT22;21764;52.042;6.830;2022-07-22T18:46:37;20.20;97.60
35645;DHT22;21764;52.042;6.830;2022-07-22T18:51:38;20.10;98.70
35645;DHT22;21764;52.042;6.830;2022-07-22T18:56:38;19.90;99.30
35645;DHT22;21764;52.042;6.830;2022-07-22T19:01:39;20.20;99.40
35645;DHT22;21764;52.042;6.830;2022-07-22T19:06:40;20.00;99.50
35645;DHT22;21764;52.042;6.830;2022-07-22T19:11:40;19.80;99.90
35645;DHT22;21764;52.042;6.830;2022-07-22T19:16:41;19.70;99.90
35645;DHT22;21764;52.042;6.830;2022-07-22T19:21:42;19.60;99.90
35645;DHT22;21764;52.042;6.830;2022-07-22T19:26:43;19.70;99.90
35645;DHT22;21764;52.042;6.830;2022-07-22T19:31:43;19.90;99.90
35645;DHT22;21764;52.042;6.830;2022-07-22T19:36:44;19.60;99.90
35645;DHT22;21764;52.042;6.830;2022-07-22T19:41:45;19.30;99.90
35645;DHT22;21764;52.042;6.830;2022-07-22T19:46:45;19.20;99.90
35645;DHT22;21764;52.042;6.830;2022-07-22T19:51:49;19.10;99.90
35645;DHT22;21764;52.042;6.830;2022-07-22T19:56:50;19.10;99.90
35645;DHT22;21764;52.042;6.830;2022-07-22T20:01:51;19.10;99.90
35645;DHT22;21764;52.042;6.830;2022-07-22T20:06:51;18.90;99.90
35645;DHT22;21764;52.042;6.830;2022-07-22T20:11:52;18.80;99.90
35645;DHT22;21764;52.042;6.830;2022-07-22T20:16:56;18.60;99.90
35645;DHT22;21764;52.042;6.830;2022-07-22T20:21:56;18.40;99.90
35645;DHT22;21764;52.042;6.830;2022-07-22T20:26:57;18.40;99.90
35645;DHT22;21764;52.042;6.830;2022-07-22T20:31:58;18.30;99.90
35645;DHT22;21764;52.042;6.830;2022-07-22T20:36:58;18.20;99.90
35645;DHT22;21764;52.042;6.830;2022-07-22T20:42:00;18.10;99.90
35645;DHT22;21764;52.042;6.830;2022-07-22T20:47:01;18.00;99.90
35645;DHT22;21764;52.042;6.830;2022-07-22T20:52:02;17.90;99.90
35645;DHT22;21764;52.042;6.830;2022-07-22T20:57:04;17.80;99.90
35645;DHT22;21764;52.042;6.830;2022-07-22T21:02:04;17.60;99.90
35645;DHT22;21764;52.042;6.830;2022-07-22T21:07:05;17.60;99.90
35645;DHT22;21764;52.042;6.830;2022-07-22T21:12:06;17.50;99.90
35645;DHT22;21764;52.042;6.830;2022-07-22T21:17:07;17.40;99.90
35645;DHT22;21764;52.042;6.830;2022-07-22T21:22:07;17.40;99.90
35645;DHT22;21764;52.042;6.830;2022-07-22T21:27:08;17.40;99.90
35645;DHT22;21764;52.042;6.830;2022-07-22T21:32:09;17.40;99.90
35645;DHT22;21764;52.042;6.830;2022-07-22T21:37:09;17.40;99.90
35645;DHT22;21764;52.042;6.830;2022-07-22T21:42:10;17.30;99.90
35645;DHT22;21764;52.042;6.830;2022-07-22T21:47:11;17.20;99.90
35645;DHT22;21764;52.042;6.830;2022-07-22T21:52:12;17.20;99.90
35645;DHT22;21764;52.042;6.830;2022-07-22T21:57:12;17.30;99.90
35645;DHT22;21764;52.042;6.830;2022-07-22T22:02:13;17.30;99.90
35645;DHT22;21764;52.042;6.830;2022-07-22T22:07:14;17.40;99.90
35645;DHT22;21764;52.042;6.830;2022-07-22T22:12:14;17.50;99.90
35645;DHT22;21764;52.042;6.830;2022-07-22T22:17:18;17.60;99.90
35645;DHT22;21764;52.042;6.830;2022-07-22T22:22:19;17.60;99.90
35645;DHT22;21764;52.042;6.830;2022-07-22T22:27:20;17.70;99.90
35645;DHT22;21764;52.042;6.830;2022-07-22T22:32:20;17.70;99.90
35645;DHT22;21764;52.042;6.830;2022-07-22T22:37:21;17.20;99.90
35645;DHT22;21764;52.042;6.830;2022-07-22T22:42:22;17.10;99.90
35645;DHT22;21764;52.042;6.830;2022-07-22T22:47:23;17.30;99.90
35645;DHT22;21764;52.042;6.830;2022-07-22T22:52:24;17.60;99.90
35645;DHT22;21764;52.042;6.830;2022-07-22T22:57:24;17.60;99.90
35645;DHT22;21764;52.042;6.830;2022-07-22T23:02:25;17.70;99.90
35645;DHT22;21764;52.042;6.830;2022-07-22T23:07:26;17.60;99.90
35645;DHT22;21764;52.042;6.830;2022-07-22T23:12:26;17.60;99.90
35645;DHT22;21764;52.042;6.830;2022-07-22T23:17:27;17.70;99.90
35645;DHT22;21764;52.042;6.830;2022-07-22T23:22:28;17.40;99.90
35645;DHT22;21764;52.042;6.830;2022-07-22T23:27:29;17.10;99.90
35645;DHT22;21764;52.042;6.830;2022-07-22T23:32:30;17.30;99.90
35645;DHT22;21764;52.042;6.830;2022-07-22T23:37:30;17.30;99.90
35645;DHT22;21764;52.042;6.830;2022-07-22T23:42:31;17.20;99.90
35645;DHT22;21764;52.042;6.830;2022-07-22T23:47:31;17.30;99.90
35645;DHT22;21764;52.042;6.830;2022-07-22T23:52:32;17.40;99.90
35645;DHT22;21764;52.042;6.830;2022-07-22T23:57:33;17.40;99.90
